sensor_id;sensor_type;location;lat;lon;timestamp;pressure;altitude;pressure_sealevel;temperature;humidity
72055;BME280;59936;51.490;5.436;2022-10-22T00:03:27;100639.75;;;11.14;100.00
72055;BME280;59936;51.490;5.436;2022-10-22T00:08:29;100636.03;;;11.00;100.00
72055;BME280;59936;51.490;5.436;2022-10-22T00:13:33;100634.84;;;10.88;100.00
72055;BME280;59936;51.490;5.436;2022-10-22T00:18:35;100631.47;;;10.86;100.00
72055;BME280;59936;51.490;5.436;2022-10-22T00:23:39;100624.56;;;10.66;100.00
72055;BME280;59936;51.490;5.436;2022-10-22T00:28:43;100625.06;;;10.55;100.00
72055;BME280;59936;51.490;5.436;2022-10-22T00:33:46;100638.94;;;10.55;100.00
72055;BME280;59936;51.490;5.436;2022-10-22T00:38:48;100637.81;;;10.80;100.00
72055;BME280;59936;51.490;5.436;2022-10-22T00:43:58;100634.53;;;11.14;100.00
72055;BME280;59936;51.490;5.436;2022-10-22T00:49:02;100632.88;;;11.48;100.00
72055;BME280;59936;51.490;5.436;2022-10-22T00:54:06;100637.97;;;11.51;100.00
72055;BME280;59936;51.490;5.436;2022-10-22T00:59:12;100640.56;;;11.51;100.00
72055;BME280;59936;51.490;5.436;2022-10-22T01:04:17;100629.81;;;11.75;100.00
72055;BME280;59936;51.490;5.436;2022-10-22T01:09:26;100632.09;;;11.81;100.00
72055;BME280;59936;51.490;5.436;2022-10-22T01:14:43;100635.78;;;11.77;100.00
72055;BME280;59936;51.490;5.436;2022-10-22T01:20:08;100635.94;;;11.92;100.00
72055;BME280;59936;51.490;5.436;2022-10-22T01:25:29;100631.19;;;11.82;100.00
72055;BME280;59936;51.490;5.436;2022-10-22T01:30:37;100642.25;;;11.88;100.00
72055;BME280;59936;51.490;5.436;2022-10-22T01:35:42;100639.03;;;11.82;100.00
72055;BME280;59936;51.490;5.436;2022-10-22T01:40:46;100630.25;;;11.83;100.00
72055;BME280;59936;51.490;5.436;2022-10-22T01:45:53;100619.50;;;11.90;100.00
72055;BME280;59936;51.490;5.436;2022-10-22T01:51:21;100628.28;;;11.71;100.00
72055;BME280;59936;51.490;5.436;2022-10-22T01:56:47;100622.41;;;11.66;100.00
72055;BME280;59936;51.490;5.436;2022-10-22T02:02:03;100625.03;;;11.66;100.00
72055;BME280;59936;51.490;5.436;2022-10-22T02:07:12;100630.03;;;11.70;100.00
72055;BME280;59936;51.490;5.436;2022-10-22T02:12:21;100634.97;;;11.77;100.00
72055;BME280;59936;51.490;5.436;2022-10-22T02:17:30;100633.44;;;11.72;100.00
72055;BME280;59936;51.490;5.436;2022-10-22T02:22:38;100633.66;;;11.68;100.00
72055;BME280;59936;51.490;5.436;2022-10-22T02:27:43;100624.88;;;11.69;100.00
72055;BME280;59936;51.490;5.436;2022-10-22T02:32:54;100627.63;;;11.66;100.00
72055;BME280;59936;51.490;5.436;2022-10-22T02:38:03;100627.19;;;11.57;100.00
72055;BME280;59936;51.490;5.436;2022-10-22T02:43:05;100635.19;;;11.54;100.00
72055;BME280;59936;51.490;5.436;2022-10-22T02:48:08;100632.09;;;11.46;100.00
72055;BME280;59936;51.490;5.436;2022-10-22T02:53:10;100639.78;;;11.49;100.00
72055;BME280;59936;51.490;5.436;2022-10-22T02:58:12;100643.81;;;11.39;100.00
72055;BME280;59936;51.490;5.436;2022-10-22T03:03:16;100648.25;;;11.37;100.00
72055;BME280;59936;51.490;5.436;2022-10-22T03:08:18;100645.31;;;11.25;100.00
72055;BME280;59936;51.490;5.436;2022-10-22T03:13:20;100658.00;;;11.33;100.00
72055;BME280;59936;51.490;5.436;2022-10-22T03:18:23;100654.84;;;11.44;100.00
72055;BME280;59936;51.490;5.436;2022-10-22T03:23:24;100653.00;;;11.46;100.00
72055;BME280;59936;51.490;5.436;2022-10-22T03:28:26;100656.25;;;11.51;100.00
72055;BME280;59936;51.490;5.436;2022-10-22T03:33:29;100657.09;;;11.52;100.00
72055;BME280;59936;51.490;5.436;2022-10-22T03:38:33;100663.31;;;11.49;100.00
72055;BME280;59936;51.490;5.436;2022-10-22T03:43:36;100673.47;;;11.55;100.00
72055;BME280;59936;51.490;5.436;2022-10-22T03:48:41;100677.00;;;11.54;100.00
72055;BME280;59936;51.490;5.436;2022-10-22T03:53:43;100679.03;;;11.67;100.00
72055;BME280;59936;51.490;5.436;2022-10-22T03:58:44;100690.84;;;11.56;100.00
72055;BME280;59936;51.490;5.436;2022-10-22T04:03:48;100681.06;;;11.60;100.00
72055;BME280;59936;51.490;5.436;2022-10-22T04:08:50;100695.16;;;11.75;100.00
72055;BME280;59936;51.490;5.436;2022-10-22T04:13:52;100692.84;;;11.87;100.00
72055;BME280;59936;51.490;5.436;2022-10-22T04:18:56;100693.63;;;11.71;100.00
72055;BME280;59936;51.490;5.436;2022-10-22T04:23:58;100696.56;;;11.82;100.00
72055;BME280;59936;51.490;5.436;2022-10-22T04:28:59;100701.31;;;11.92;100.00
72055;BME280;59936;51.490;5.436;2022-10-22T04:34:02;100701.78;;;11.82;100.00
72055;BME280;59936;51.490;5.436;2022-10-22T04:39:05;100701.00;;;11.80;100.00
72055;BME280;59936;51.490;5.436;2022-10-22T04:44:08;100692.22;;;11.81;100.00
72055;BME280;59936;51.490;5.436;2022-10-22T04:49:11;100695.78;;;11.80;100.00
72055;BME280;59936;51.490;5.436;2022-10-22T04:54:14;100704.75;;;11.75;100.00
72055;BME280;59936;51.490;5.436;2022-10-22T04:59:15;100701.06;;;11.79;100.00
72055;BME280;59936;51.490;5.436;2022-10-22T05:04:18;100708.06;;;11.96;100.00
72055;BME280;59936;51.490;5.436;2022-10-22T05:09:20;100700.38;;;11.93;100.00
72055;BME280;59936;51.490;5.436;2022-10-22T05:14:22;100707.84;;;12.01;100.00
72055;BME280;59936;51.490;5.436;2022-10-22T05:19:29;100721.00;;;12.17;100.00
72055;BME280;59936;51.490;5.436;2022-10-22T05:24:33;100712.06;;;12.21;100.00
72055;BME280;59936;51.490;5.436;2022-10-22T05:29:36;100722.91;;;12.31;100.00
72055;BME280;59936;51.490;5.436;2022-10-22T05:34:39;100723.03;;;12.29;100.00
72055;BME280;59936;51.490;5.436;2022-10-22T05:39:41;100720.63;;;12.25;100.00
72055;BME280;59936;51.490;5.436;2022-10-22T05:44:43;100729.00;;;12.31;100.00
72055;BME280;59936;51.490;5.436;2022-10-22T05:49:46;100727.94;;;12.18;100.00
72055;BME280;59936;51.490;5.436;2022-10-22T05:54:47;100740.41;;;12.13;100.00
72055;BME280;59936;51.490;5.436;2022-10-22T05:59:49;100740.97;;;12.19;100.00
72055;BME280;59936;51.490;5.436;2022-10-22T06:04:52;100752.19;;;12.21;100.00
72055;BME280;59936;51.490;5.436;2022-10-22T06:09:54;100763.88;;;12.14;100.00
72055;BME280;59936;51.490;5.436;2022-10-22T06:14:57;100762.88;;;12.17;100.00
72055;BME280;59936;51.490;5.436;2022-10-22T06:20:00;100767.41;;;12.13;100.00
72055;BME280;59936;51.490;5.436;2022-10-22T06:25:02;100780.44;;;12.15;100.00
72055;BME280;59936;51.490;5.436;2022-10-22T06:30:05;100785.50;;;12.18;100.00
72055;BME280;59936;51.490;5.436;2022-10-22T06:35:10;100791.72;;;12.15;100.00
72055;BME280;59936;51.490;5.436;2022-10-22T06:40:12;100801.22;;;12.18;100.00
72055;BME280;59936;51.490;5.436;2022-10-22T06:45:15;100806.25;;;12.21;100.00
72055;BME280;59936;51.490;5.436;2022-10-22T06:50:18;100815.50;;;12.28;100.00
72055;BME280;59936;51.490;5.436;2022-10-22T06:55:20;100822.19;;;12.34;100.00
72055;BME280;59936;51.490;5.436;2022-10-22T07:00:22;100833.53;;;12.34;100.00
72055;BME280;59936;51.490;5.436;2022-10-22T07:05:25;100836.97;;;12.35;100.00
72055;BME280;59936;51.490;5.436;2022-10-22T07:10:27;100844.00;;;12.34;100.00
72055;BME280;59936;51.490;5.436;2022-10-22T07:15:28;100848.16;;;12.39;100.00
72055;BME280;59936;51.490;5.436;2022-10-22T07:20:31;100861.63;;;12.48;100.00
72055;BME280;59936;51.490;5.436;2022-10-22T07:25:33;100863.53;;;12.62;100.00
72055;BME280;59936;51.490;5.436;2022-10-22T07:30:36;100874.09;;;12.79;100.00
72055;BME280;59936;51.490;5.436;2022-10-22T07:35:40;100881.47;;;13.22;100.00
72055;BME280;59936;51.490;5.436;2022-10-22T07:40:43;100892.16;;;13.35;100.00
72055;BME280;59936;51.490;5.436;2022-10-22T07:45:44;100890.13;;;14.04;100.00
72055;BME280;59936;51.490;5.436;2022-10-22T07:50:49;100897.19;;;14.65;100.00
72055;BME280;59936;51.490;5.436;2022-10-22T07:55:52;100896.97;;;15.57;100.00
72055;BME280;59936;51.490;5.436;2022-10-22T08:00:54;100900.84;;;15.08;100.00
72055;BME280;59936;51.490;5.436;2022-10-22T08:05:59;100907.44;;;14.39;100.00
72055;BME280;59936;51.490;5.436;2022-10-22T08:11:01;100917.22;;;15.13;100.00
72055;BME280;59936;51.490;5.436;2022-10-22T08:16:05;100916.91;;;15.18;100.00
72055;BME280;59936;51.490;5.436;2022-10-22T08:21:08;100920.47;;;15.46;100.00
72055;BME280;59936;51.490;5.436;2022-10-22T08:26:10;100932.19;;;14.82;100.00
72055;BME280;59936;51.490;5.436;2022-10-22T08:31:12;100939.53;;;15.06;100.00
72055;BME280;59936;51.490;5.436;2022-10-22T08:36:15;100944.22;;;16.16;100.00
72055;BME280;59936;51.490;5.436;2022-10-22T08:41:19;100947.88;;;16.41;100.00
72055;BME280;59936;51.490;5.436;2022-10-22T08:46:42;100964.50;;;16.01;100.00
72055;BME280;59936;51.490;5.436;2022-10-22T08:51:54;100970.34;;;15.62;100.00
72055;BME280;59936;51.490;5.436;2022-10-22T08:57:14;100971.09;;;15.35;100.00
72055;BME280;59936;51.490;5.436;2022-10-22T09:02:31;100981.78;;;15.32;100.00
72055;BME280;59936;51.490;5.436;2022-10-22T09:07:42;100990.78;;;15.28;100.00
72055;BME280;59936;51.490;5.436;2022-10-22T09:12:49;100993.28;;;15.45;100.00
72055;BME280;59936;51.490;5.436;2022-10-22T09:18:05;100999.44;;;15.44;100.00
72055;BME280;59936;51.490;5.436;2022-10-22T09:23:26;101004.53;;;15.33;100.00
72055;BME280;59936;51.490;5.436;2022-10-22T09:28:33;101014.88;;;15.65;100.00
72055;BME280;59936;51.490;5.436;2022-10-22T09:33:34;101019.06;;;15.39;100.00
72055;BME280;59936;51.490;5.436;2022-10-22T09:38:44;101032.03;;;15.27;100.00
72055;BME280;59936;51.490;5.436;2022-10-22T09:43:48;101035.69;;;15.39;100.00
72055;BME280;59936;51.490;5.436;2022-10-22T09:48:58;101036.44;;;15.27;100.00
72055;BME280;59936;51.490;5.436;2022-10-22T09:54:14;101038.19;;;15.57;100.00
72055;BME280;59936;51.490;5.436;2022-10-22T09:59:25;101053.97;;;15.57;100.00
72055;BME280;59936;51.490;5.436;2022-10-22T10:04:33;101063.94;;;15.81;100.00
72055;BME280;59936;51.490;5.436;2022-10-22T10:09:41;101078.38;;;15.59;100.00
72055;BME280;59936;51.490;5.436;2022-10-22T10:14:48;101079.13;;;15.61;100.00
72055;BME280;59936;51.490;5.436;2022-10-22T10:20:07;101092.47;;;15.58;100.00
72055;BME280;59936;51.490;5.436;2022-10-22T10:25:34;101095.47;;;15.66;100.00
72055;BME280;59936;51.490;5.436;2022-10-22T10:30:47;101102.72;;;15.92;100.00
72055;BME280;59936;51.490;5.436;2022-10-22T10:36:00;101097.22;;;15.96;100.00
72055;BME280;59936;51.490;5.436;2022-10-22T10:41:25;101095.25;;;16.57;100.00
72055;BME280;59936;51.490;5.436;2022-10-22T10:46:45;101103.69;;;16.62;100.00
72055;BME280;59936;51.490;5.436;2022-10-22T10:51:57;101114.50;;;16.99;100.00
72055;BME280;59936;51.490;5.436;2022-10-22T10:57:15;101109.78;;;17.32;99.54
72055;BME280;59936;51.490;5.436;2022-10-22T11:08:24;101104.72;;;17.68;95.36
72055;BME280;59936;51.490;5.436;2022-10-22T11:13:34;101094.97;;;17.30;95.55
72055;BME280;59936;51.490;5.436;2022-10-22T11:18:44;101105.09;;;17.23;99.65
72055;BME280;59936;51.490;5.436;2022-10-22T11:23:55;101116.91;;;17.03;96.27
72055;BME280;59936;51.490;5.436;2022-10-22T11:29:10;101120.47;;;16.61;97.55
72055;BME280;59936;51.490;5.436;2022-10-22T11:34:16;101104.00;;;16.85;95.64
72055;BME280;59936;51.490;5.436;2022-10-22T11:39:30;101088.84;;;18.07;94.78
72055;BME280;59936;51.490;5.436;2022-10-22T11:45:00;101095.75;;;17.58;92.85
72055;BME280;59936;51.490;5.436;2022-10-22T11:50:17;101097.41;;;17.98;91.65
72055;BME280;59936;51.490;5.436;2022-10-22T11:55:41;101100.75;;;18.88;86.49
72055;BME280;59936;51.490;5.436;2022-10-22T12:00:48;101092.88;;;18.13;89.80
72055;BME280;59936;51.490;5.436;2022-10-22T12:06:04;101086.28;;;19.29;85.41
72055;BME280;59936;51.490;5.436;2022-10-22T12:11:20;101096.59;;;19.21;82.08
72055;BME280;59936;51.490;5.436;2022-10-22T12:16:33;101096.91;;;18.06;87.92
72055;BME280;59936;51.490;5.436;2022-10-22T12:21:36;101109.03;;;17.43;86.53
72055;BME280;59936;51.490;5.436;2022-10-22T12:26:39;101113.91;;;18.01;88.40
72055;BME280;59936;51.490;5.436;2022-10-22T12:31:44;101123.09;;;17.70;88.55
72055;BME280;59936;51.490;5.436;2022-10-22T12:36:48;101114.69;;;17.11;90.21
72055;BME280;59936;51.490;5.436;2022-10-22T12:41:51;101121.38;;;17.43;92.36
72055;BME280;59936;51.490;5.436;2022-10-22T12:46:55;101115.16;;;17.57;89.40
72055;BME280;59936;51.490;5.436;2022-10-22T12:52:00;101112.41;;;17.45;91.82
72055;BME280;59936;51.490;5.436;2022-10-22T12:57:05;101102.72;;;17.85;90.12
72055;BME280;59936;51.490;5.436;2022-10-22T13:02:18;101104.31;;;17.74;89.60
72055;BME280;59936;51.490;5.436;2022-10-22T13:07:22;101107.72;;;18.40;85.99
72055;BME280;59936;51.490;5.436;2022-10-22T13:12:33;101108.34;;;18.68;85.89
72055;BME280;59936;51.490;5.436;2022-10-22T13:17:39;101107.59;;;18.79;85.75
72055;BME280;59936;51.490;5.436;2022-10-22T13:22:52;101106.25;;;18.36;85.06
72055;BME280;59936;51.490;5.436;2022-10-22T13:27:58;101101.63;;;18.26;85.54
72055;BME280;59936;51.490;5.436;2022-10-22T13:33:06;101099.50;;;18.32;85.36
72055;BME280;59936;51.490;5.436;2022-10-22T13:38:25;101103.88;;;18.07;84.94
72055;BME280;59936;51.490;5.436;2022-10-22T13:43:29;101097.13;;;17.63;87.97
72055;BME280;59936;51.490;5.436;2022-10-22T13:48:32;101097.44;;;17.85;86.41
72055;BME280;59936;51.490;5.436;2022-10-22T13:53:35;101098.69;;;18.05;85.80
72055;BME280;59936;51.490;5.436;2022-10-22T13:58:37;101100.50;;;18.18;84.88
72055;BME280;59936;51.490;5.436;2022-10-22T14:03:40;101113.41;;;18.09;86.28
72055;BME280;59936;51.490;5.436;2022-10-22T14:08:44;101105.56;;;18.21;81.78
72055;BME280;59936;51.490;5.436;2022-10-22T14:13:50;101105.44;;;17.96;84.78
72055;BME280;59936;51.490;5.436;2022-10-22T14:18:54;101105.66;;;17.93;85.64
72055;BME280;59936;51.490;5.436;2022-10-22T14:23:57;101111.03;;;17.53;86.13
72055;BME280;59936;51.490;5.436;2022-10-22T14:29:00;101108.41;;;17.53;84.94
72055;BME280;59936;51.490;5.436;2022-10-22T14:34:05;101106.41;;;17.82;84.92
72055;BME280;59936;51.490;5.436;2022-10-22T14:39:07;101107.16;;;17.71;83.73
72055;BME280;59936;51.490;5.436;2022-10-22T14:44:11;101115.59;;;17.76;84.23
72055;BME280;59936;51.490;5.436;2022-10-22T14:49:14;101117.47;;;17.48;85.42
72055;BME280;59936;51.490;5.436;2022-10-22T14:54:16;101126.25;;;17.49;85.54
72055;BME280;59936;51.490;5.436;2022-10-22T14:59:18;101131.41;;;17.37;84.94
72055;BME280;59936;51.490;5.436;2022-10-22T15:04:21;101136.00;;;17.34;87.29
72055;BME280;59936;51.490;5.436;2022-10-22T15:09:25;101150.22;;;17.18;88.18
72055;BME280;59936;51.490;5.436;2022-10-22T15:14:27;101154.34;;;16.95;89.05
72055;BME280;59936;51.490;5.436;2022-10-22T15:19:31;101151.38;;;16.72;90.23
72055;BME280;59936;51.490;5.436;2022-10-22T15:24:33;101147.41;;;16.79;90.01
72055;BME280;59936;51.490;5.436;2022-10-22T15:29:35;101156.72;;;16.85;91.13
72055;BME280;59936;51.490;5.436;2022-10-22T15:34:38;101159.00;;;16.77;91.91
72055;BME280;59936;51.490;5.436;2022-10-22T15:39:41;101157.09;;;16.37;100.00
72055;BME280;59936;51.490;5.436;2022-10-22T15:44:43;101147.31;;;15.95;100.00
72055;BME280;59936;51.490;5.436;2022-10-22T15:49:46;101146.31;;;15.81;100.00
72055;BME280;59936;51.490;5.436;2022-10-22T15:54:48;101150.66;;;15.37;100.00
72055;BME280;59936;51.490;5.436;2022-10-22T15:59:50;101145.28;;;15.08;100.00
72055;BME280;59936;51.490;5.436;2022-10-22T16:04:54;101140.97;;;14.75;100.00
72055;BME280;59936;51.490;5.436;2022-10-22T16:09:56;101146.34;;;14.39;100.00
72055;BME280;59936;51.490;5.436;2022-10-22T16:15:00;101144.13;;;14.15;100.00
72055;BME280;59936;51.490;5.436;2022-10-22T16:20:04;101153.25;;;13.90;100.00
72055;BME280;59936;51.490;5.436;2022-10-22T16:25:07;101154.66;;;13.62;100.00
72055;BME280;59936;51.490;5.436;2022-10-22T16:30:10;101162.88;;;13.37;100.00
72055;BME280;59936;51.490;5.436;2022-10-22T16:35:14;101163.06;;;13.14;100.00
72055;BME280;59936;51.490;5.436;2022-10-22T16:40:16;101167.34;;;12.98;100.00
72055;BME280;59936;51.490;5.436;2022-10-22T16:45:17;101162.78;;;12.84;100.00
72055;BME280;59936;51.490;5.436;2022-10-22T16:50:20;101158.03;;;12.54;100.00
72055;BME280;59936;51.490;5.436;2022-10-22T16:55:22;101155.28;;;12.38;100.00
72055;BME280;59936;51.490;5.436;2022-10-22T17:00:24;101170.72;;;12.23;100.00
72055;BME280;59936;51.490;5.436;2022-10-22T17:05:27;101171.16;;;12.14;100.00
72055;BME280;59936;51.490;5.436;2022-10-22T17:10:28;101169.09;;;12.00;100.00
72055;BME280;59936;51.490;5.436;2022-10-22T17:15:31;101177.38;;;11.89;100.00
72055;BME280;59936;51.490;5.436;2022-10-22T17:20:34;101176.94;;;11.79;100.00
72055;BME280;59936;51.490;5.436;2022-10-22T17:25:40;101179.13;;;11.67;100.00
72055;BME280;59936;51.490;5.436;2022-10-22T17:30:43;101189.28;;;11.54;100.00
72055;BME280;59936;51.490;5.436;2022-10-22T17:35:46;101192.91;;;11.50;100.00
72055;BME280;59936;51.490;5.436;2022-10-22T17:40:51;101188.16;;;11.38;100.00
72055;BME280;59936;51.490;5.436;2022-10-22T17:46:02;101193.91;;;11.25;100.00
72055;BME280;59936;51.490;5.436;2022-10-22T17:51:06;101194.28;;;11.16;100.00
72055;BME280;59936;51.490;5.436;2022-10-22T17:56:09;101201.41;;;11.11;100.00
72055;BME280;59936;51.490;5.436;2022-10-22T18:01:18;101201.78;;;11.01;100.00
72055;BME280;59936;51.490;5.436;2022-10-22T18:06:23;101197.47;;;11.00;100.00
72055;BME280;59936;51.490;5.436;2022-10-22T18:11:26;101194.25;;;10.93;100.00
72055;BME280;59936;51.490;5.436;2022-10-22T18:16:30;101205.31;;;11.00;100.00
72055;BME280;59936;51.490;5.436;2022-10-22T18:21:33;101209.41;;;10.84;100.00
72055;BME280;59936;51.490;5.436;2022-10-22T18:26:37;101215.41;;;10.86;100.00
72055;BME280;59936;51.490;5.436;2022-10-22T18:31:39;101216.56;;;10.78;100.00
72055;BME280;59936;51.490;5.436;2022-10-22T18:36:43;101216.81;;;10.72;100.00
72055;BME280;59936;51.490;5.436;2022-10-22T18:41:45;101210.97;;;10.65;100.00
72055;BME280;59936;51.490;5.436;2022-10-22T18:46:46;101210.22;;;10.62;100.00
72055;BME280;59936;51.490;5.436;2022-10-22T18:51:49;101211.34;;;10.54;100.00
72055;BME280;59936;51.490;5.436;2022-10-22T18:56:53;101203.50;;;10.54;100.00
72055;BME280;59936;51.490;5.436;2022-10-22T19:01:57;101198.28;;;10.54;100.00
72055;BME280;59936;51.490;5.436;2022-10-22T19:07:01;101197.72;;;10.46;100.00
72055;BME280;59936;51.490;5.436;2022-10-22T19:12:03;101183.06;;;10.42;100.00
72055;BME280;59936;51.490;5.436;2022-10-22T19:17:04;101180.38;;;10.43;100.00
72055;BME280;59936;51.490;5.436;2022-10-22T19:22:07;101181.34;;;10.41;100.00
72055;BME280;59936;51.490;5.436;2022-10-22T19:27:09;101187.34;;;10.45;100.00
72055;BME280;59936;51.490;5.436;2022-10-22T19:32:11;101181.34;;;10.41;100.00
72055;BME280;59936;51.490;5.436;2022-10-22T19:37:14;101177.84;;;10.42;100.00
72055;BME280;59936;51.490;5.436;2022-10-22T19:42:15;101179.97;;;10.30;100.00
72055;BME280;59936;51.490;5.436;2022-10-22T19:47:17;101167.75;;;10.33;100.00
72055;BME280;59936;51.490;5.436;2022-10-22T19:52:20;101170.50;;;10.28;100.00
72055;BME280;59936;51.490;5.436;2022-10-22T19:57:22;101171.38;;;10.28;100.00
72055;BME280;59936;51.490;5.436;2022-10-22T20:02:23;101168.81;;;10.27;100.00
72055;BME280;59936;51.490;5.436;2022-10-22T20:07:27;101170.97;;;10.39;100.00
72055;BME280;59936;51.490;5.436;2022-10-22T20:12:30;101178.38;;;10.26;100.00
72055;BME280;59936;51.490;5.436;2022-10-22T20:17:31;101180.31;;;10.21;100.00
72055;BME280;59936;51.490;5.436;2022-10-22T20:22:35;101182.13;;;10.19;100.00
72055;BME280;59936;51.490;5.436;2022-10-22T20:27:37;101189.84;;;10.22;100.00
72055;BME280;59936;51.490;5.436;2022-10-22T20:32:39;101194.28;;;10.20;100.00
72055;BME280;59936;51.490;5.436;2022-10-22T20:37:42;101193.13;;;10.27;100.00
72055;BME280;59936;51.490;5.436;2022-10-22T20:42:43;101202.88;;;10.22;100.00
72055;BME280;59936;51.490;5.436;2022-10-22T20:47:46;101191.72;;;10.18;100.00
72055;BME280;59936;51.490;5.436;2022-10-22T20:52:50;101181.28;;;10.18;100.00
72055;BME280;59936;51.490;5.436;2022-10-22T20:57:52;101187.38;;;10.17;100.00
72055;BME280;59936;51.490;5.436;2022-10-22T21:02:54;101191.88;;;10.14;100.00
72055;BME280;59936;51.490;5.436;2022-10-22T21:07:57;101195.44;;;10.11;100.00
72055;BME280;59936;51.490;5.436;2022-10-22T21:12:59;101193.47;;;10.18;100.00
72055;BME280;59936;51.490;5.436;2022-10-22T21:18:00;101203.22;;;10.13;100.00
72055;BME280;59936;51.490;5.436;2022-10-22T21:23:03;101170.19;;;10.12;100.00
72055;BME280;59936;51.490;5.436;2022-10-22T21:28:05;101178.81;;;10.14;100.00
72055;BME280;59936;51.490;5.436;2022-10-22T21:33:07;101191.81;;;10.15;100.00
72055;BME280;59936;51.490;5.436;2022-10-22T21:38:09;101190.22;;;10.11;100.00
72055;BME280;59936;51.490;5.436;2022-10-22T21:43:11;101191.06;;;10.12;100.00
72055;BME280;59936;51.490;5.436;2022-10-22T21:48:15;101198.56;;;10.21;100.00
72055;BME280;59936;51.490;5.436;2022-10-22T21:53:18;101206.16;;;10.27;100.00
72055;BME280;59936;51.490;5.436;2022-10-22T21:58:19;101199.59;;;10.17;100.00
72055;BME280;59936;51.490;5.436;2022-10-22T22:03:21;101196.94;;;10.18;100.00
72055;BME280;59936;51.490;5.436;2022-10-22T22:08:25;101190.66;;;10.24;100.00
72055;BME280;59936;51.490;5.436;2022-10-22T22:13:27;101192.00;;;10.35;100.00
72055;BME280;59936;51.490;5.436;2022-10-22T22:18:31;101187.81;;;10.30;100.00
72055;BME280;59936;51.490;5.436;2022-10-22T22:23:37;101173.84;;;10.31;100.00
72055;BME280;59936;51.490;5.436;2022-10-22T22:28:40;101166.03;;;10.31;100.00
72055;BME280;59936;51.490;5.436;2022-10-22T22:33:42;101182.63;;;10.29;100.00
72055;BME280;59936;51.490;5.436;2022-10-22T22:38:46;101176.69;;;10.25;100.00
72055;BME280;59936;51.490;5.436;2022-10-22T22:43:47;101160.94;;;10.28;100.00
72055;BME280;59936;51.490;5.436;2022-10-22T22:48:50;101160.22;;;10.23;100.00
72055;BME280;59936;51.490;5.436;2022-10-22T22:53:53;101154.19;;;10.23;100.00
72055;BME280;59936;51.490;5.436;2022-10-22T22:58:55;101152.41;;;10.23;100.00
72055;BME280;59936;51.490;5.436;2022-10-22T23:03:58;101157.41;;;10.29;100.00
72055;BME280;59936;51.490;5.436;2022-10-22T23:09:03;101150.50;;;10.28;100.00
72055;BME280;59936;51.490;5.436;2022-10-22T23:14:08;101154.34;;;10.18;100.00
72055;BME280;59936;51.490;5.436;2022-10-22T23:19:13;101152.06;;;10.09;100.00
72055;BME280;59936;51.490;5.436;2022-10-22T23:24:19;101149.66;;;10.02;100.00
72055;BME280;59936;51.490;5.436;2022-10-22T23:29:25;101139.56;;;9.93;100.00
72055;BME280;59936;51.490;5.436;2022-10-22T23:34:29;101141.47;;;9.88;100.00
72055;BME280;59936;51.490;5.436;2022-10-22T23:39:33;101130.94;;;9.91;100.00
72055;BME280;59936;51.490;5.436;2022-10-22T23:44:34;101117.22;;;9.86;100.00
72055;BME280;59936;51.490;5.436;2022-10-22T23:49:36;101117.22;;;9.86;100.00
72055;BME280;59936;51.490;5.436;2022-10-22T23:54:39;101124.13;;;9.87;100.00
72055;BME280;59936;51.490;5.436;2022-10-22T23:59:41;101107.63;;;9.86;100.00
